sensor_id;sensor_type;location;lat;lon;timestamp;P1;durP1;ratioP1;P2;durP2;ratioP2
12597;SDS011;6364;53.590;9.956;2022-12-17T00:01:52;96.75;;;45.65;;
12597;SDS011;6364;53.590;9.956;2022-12-17T00:04:36;100.90;;;46.30;;
12597;SDS011;6364;53.590;9.956;2022-12-17T00:10:04;98.75;;;46.03;;
12597;SDS011;6364;53.590;9.956;2022-12-17T00:12:49;121.53;;;50.55;;
12597;SDS011;6364;53.590;9.956;2022-12-17T00:18:16;84.13;;;36.70;;
12597;SDS011;6364;53.590;9.956;2022-12-17T00:21:00;107.95;;;48.15;;
12597;SDS011;6364;53.590;9.956;2022-12-17T00:26:29;107.63;;;46.75;;
12597;SDS011;6364;53.590;9.956;2022-12-17T00:29:13;111.40;;;48.88;;
12597;SDS011;6364;53.590;9.956;2022-12-17T00:34:41;86.57;;;37.17;;
12597;SDS011;6364;53.590;9.956;2022-12-17T00:37:25;119.28;;;49.03;;
12597;SDS011;6364;53.590;9.956;2022-12-17T00:40:08;112.13;;;49.05;;
12597;SDS011;6364;53.590;9.956;2022-12-17T00:45:46;110.65;;;49.45;;
12597;SDS011;6364;53.590;9.956;2022-12-17T00:51:14;114.63;;;51.05;;
12597;SDS011;6364;53.590;9.956;2022-12-17T00:56:42;90.05;;;38.25;;
12597;SDS011;6364;53.590;9.956;2022-12-17T01:02:09;111.80;;;51.72;;
12597;SDS011;6364;53.590;9.956;2022-12-17T01:07:37;105.88;;;48.72;;
12597;SDS011;6364;53.590;9.956;2022-12-17T01:10:26;127.57;;;52.72;;
12597;SDS011;6364;53.590;9.956;2022-12-17T01:13:13;121.07;;;54.20;;
12597;SDS011;6364;53.590;9.956;2022-12-17T01:16:05;126.95;;;55.72;;
12597;SDS011;6364;53.590;9.956;2022-12-17T01:18:51;119.97;;;52.10;;
12597;SDS011;6364;53.590;9.956;2022-12-17T01:21:35;119.70;;;52.42;;
12597;SDS011;6364;53.590;9.956;2022-12-17T01:24:19;120.70;;;52.97;;
12597;SDS011;6364;53.590;9.956;2022-12-17T01:29:47;94.15;;;39.53;;
12597;SDS011;6364;53.590;9.956;2022-12-17T01:32:31;117.63;;;50.58;;
12597;SDS011;6364;53.590;9.956;2022-12-17T01:35:15;129.32;;;52.80;;
12597;SDS011;6364;53.590;9.956;2022-12-17T01:37:59;115.25;;;52.13;;
12597;SDS011;6364;53.590;9.956;2022-12-17T01:43:34;116.00;;;51.47;;
12597;SDS011;6364;53.590;9.956;2022-12-17T01:46:19;111.30;;;50.35;;
12597;SDS011;6364;53.590;9.956;2022-12-17T01:51:47;112.45;;;50.55;;
12597;SDS011;6364;53.590;9.956;2022-12-17T01:54:31;119.93;;;51.20;;
12597;SDS011;6364;53.590;9.956;2022-12-17T01:57:15;116.63;;;50.85;;
12597;SDS011;6364;53.590;9.956;2022-12-17T02:00:00;119.18;;;51.55;;
12597;SDS011;6364;53.590;9.956;2022-12-17T02:02:47;115.13;;;52.55;;
12597;SDS011;6364;53.590;9.956;2022-12-17T02:14:24;115.70;;;50.72;;
12597;SDS011;6364;53.590;9.956;2022-12-17T02:17:13;114.88;;;50.83;;
12597;SDS011;6364;53.590;9.956;2022-12-17T02:23:06;79.75;;;34.28;;
12597;SDS011;6364;53.590;9.956;2022-12-17T02:25:54;114.00;;;49.05;;
12597;SDS011;6364;53.590;9.956;2022-12-17T02:28:42;116.75;;;51.53;;
12597;SDS011;6364;53.590;9.956;2022-12-17T02:31:29;115.68;;;49.28;;
12597;SDS011;6364;53.590;9.956;2022-12-17T02:34:13;126.13;;;51.35;;
12597;SDS011;6364;53.590;9.956;2022-12-17T02:39:41;113.15;;;50.33;;
12597;SDS011;6364;53.590;9.956;2022-12-17T02:42:25;116.82;;;50.75;;
12597;SDS011;6364;53.590;9.956;2022-12-17T02:45:10;114.80;;;50.92;;
12597;SDS011;6364;53.590;9.956;2022-12-17T02:47:55;119.40;;;50.15;;
12597;SDS011;6364;53.590;9.956;2022-12-17T02:50:39;120.40;;;52.30;;
12597;SDS011;6364;53.590;9.956;2022-12-17T02:56:06;124.10;;;51.42;;
12597;SDS011;6364;53.590;9.956;2022-12-17T02:58:50;115.57;;;51.45;;
12597;SDS011;6364;53.590;9.956;2022-12-17T03:04:18;118.47;;;50.38;;
12597;SDS011;6364;53.590;9.956;2022-12-17T03:09:46;91.47;;;38.65;;
12597;SDS011;6364;53.590;9.956;2022-12-17T03:15:14;119.38;;;52.88;;
12597;SDS011;6364;53.590;9.956;2022-12-17T03:20:42;124.53;;;53.92;;
12597;SDS011;6364;53.590;9.956;2022-12-17T03:26:10;119.03;;;52.25;;
12597;SDS011;6364;53.590;9.956;2022-12-17T03:28:54;127.85;;;57.28;;
12597;SDS011;6364;53.590;9.956;2022-12-17T03:31:38;127.65;;;54.60;;
12597;SDS011;6364;53.590;9.956;2022-12-17T03:34:22;132.98;;;57.22;;
12597;SDS011;6364;53.590;9.956;2022-12-17T03:37:06;128.73;;;55.45;;
12597;SDS011;6364;53.590;9.956;2022-12-17T03:42:34;118.82;;;53.38;;
12597;SDS011;6364;53.590;9.956;2022-12-17T03:45:18;115.90;;;52.25;;
12597;SDS011;6364;53.590;9.956;2022-12-17T03:48:09;128.95;;;55.60;;
12597;SDS011;6364;53.590;9.956;2022-12-17T03:50:54;126.30;;;58.17;;
12597;SDS011;6364;53.590;9.956;2022-12-17T03:53:39;132.35;;;55.38;;
12597;SDS011;6364;53.590;9.956;2022-12-17T03:56:23;134.02;;;57.85;;
12597;SDS011;6364;53.590;9.956;2022-12-17T03:59:08;125.97;;;53.80;;
12597;SDS011;6364;53.590;9.956;2022-12-17T04:01:52;137.00;;;56.15;;
12597;SDS011;6364;53.590;9.956;2022-12-17T04:07:20;128.88;;;55.38;;
12597;SDS011;6364;53.590;9.956;2022-12-17T04:12:48;121.07;;;53.70;;
12597;SDS011;6364;53.590;9.956;2022-12-17T04:18:16;124.57;;;53.00;;
12597;SDS011;6364;53.590;9.956;2022-12-17T04:20:59;136.18;;;56.38;;
12597;SDS011;6364;53.590;9.956;2022-12-17T04:23:44;123.07;;;55.80;;
12597;SDS011;6364;53.590;9.956;2022-12-17T04:26:27;133.30;;;55.78;;
12597;SDS011;6364;53.590;9.956;2022-12-17T04:29:11;127.40;;;54.78;;
12597;SDS011;6364;53.590;9.956;2022-12-17T04:34:39;122.90;;;53.38;;
12597;SDS011;6364;53.590;9.956;2022-12-17T04:37:23;127.97;;;54.17;;
12597;SDS011;6364;53.590;9.956;2022-12-17T04:40:08;136.27;;;57.10;;
12597;SDS011;6364;53.590;9.956;2022-12-17T04:42:53;137.18;;;57.45;;
12597;SDS011;6364;53.590;9.956;2022-12-17T04:45:37;124.30;;;53.00;;
12597;SDS011;6364;53.590;9.956;2022-12-17T04:48:21;123.15;;;55.70;;
12597;SDS011;6364;53.590;9.956;2022-12-17T04:51:05;130.25;;;55.10;;
12597;SDS011;6364;53.590;9.956;2022-12-17T04:56:33;121.70;;;52.35;;
12597;SDS011;6364;53.590;9.956;2022-12-17T04:59:17;131.35;;;55.97;;
12597;SDS011;6364;53.590;9.956;2022-12-17T05:04:44;124.63;;;50.13;;
12597;SDS011;6364;53.590;9.956;2022-12-17T05:07:28;123.32;;;51.88;;
12597;SDS011;6364;53.590;9.956;2022-12-17T05:13:10;117.75;;;51.63;;
12597;SDS011;6364;53.590;9.956;2022-12-17T05:15:54;122.13;;;51.45;;
12597;SDS011;6364;53.590;9.956;2022-12-17T05:18:39;111.35;;;49.40;;
12597;SDS011;6364;53.590;9.956;2022-12-17T05:21:23;117.38;;;49.92;;
12597;SDS011;6364;53.590;9.956;2022-12-17T05:26:51;119.82;;;48.38;;
12597;SDS011;6364;53.590;9.956;2022-12-17T05:29:35;103.35;;;45.15;;
12597;SDS011;6364;53.590;9.956;2022-12-17T05:35:03;104.85;;;42.88;;
12597;SDS011;6364;53.590;9.956;2022-12-17T05:40:30;87.40;;;38.85;;
12597;SDS011;6364;53.590;9.956;2022-12-17T05:43:14;95.53;;;40.10;;
12597;SDS011;6364;53.590;9.956;2022-12-17T05:45:59;102.68;;;40.70;;
12597;SDS011;6364;53.590;9.956;2022-12-17T05:48:43;94.35;;;40.28;;
12597;SDS011;6364;53.590;9.956;2022-12-17T05:54:10;92.68;;;40.45;;
12597;SDS011;6364;53.590;9.956;2022-12-17T05:56:55;88.38;;;38.67;;
12597;SDS011;6364;53.590;9.956;2022-12-17T06:02:22;63.13;;;27.45;;
12597;SDS011;6364;53.590;9.956;2022-12-17T06:05:06;86.93;;;35.75;;
12597;SDS011;6364;53.590;9.956;2022-12-17T06:07:51;92.65;;;39.78;;
12597;SDS011;6364;53.590;9.956;2022-12-17T06:13:19;81.18;;;36.53;;
12597;SDS011;6364;53.590;9.956;2022-12-17T06:18:47;95.72;;;39.30;;
12597;SDS011;6364;53.590;9.956;2022-12-17T06:24:15;82.38;;;37.65;;
12597;SDS011;6364;53.590;9.956;2022-12-17T06:29:42;65.63;;;27.73;;
12597;SDS011;6364;53.590;9.956;2022-12-17T06:32:26;76.97;;;36.72;;
12597;SDS011;6364;53.590;9.956;2022-12-17T06:35:10;98.30;;;39.83;;
12597;SDS011;6364;53.590;9.956;2022-12-17T06:37:58;87.85;;;39.38;;
12597;SDS011;6364;53.590;9.956;2022-12-17T06:40:43;81.68;;;37.15;;
12597;SDS011;6364;53.590;9.956;2022-12-17T06:46:11;65.03;;;29.15;;
12597;SDS011;6364;53.590;9.956;2022-12-17T06:48:54;80.50;;;36.50;;
12597;SDS011;6364;53.590;9.956;2022-12-17T06:51:38;81.57;;;38.35;;
12597;SDS011;6364;53.590;9.956;2022-12-17T06:57:06;80.15;;;36.42;;
12597;SDS011;6364;53.590;9.956;2022-12-17T06:59:50;92.90;;;39.97;;
12597;SDS011;6364;53.590;9.956;2022-12-17T07:02:34;99.05;;;42.42;;
12597;SDS011;6364;53.590;9.956;2022-12-17T07:05:18;89.47;;;41.65;;
12597;SDS011;6364;53.590;9.956;2022-12-17T07:10:46;64.78;;;28.08;;
12597;SDS011;6364;53.590;9.956;2022-12-17T07:13:30;95.07;;;42.22;;
12597;SDS011;6364;53.590;9.956;2022-12-17T07:16:14;93.97;;;42.03;;
12597;SDS011;6364;53.590;9.956;2022-12-17T07:18:58;99.35;;;43.67;;
12597;SDS011;6364;53.590;9.956;2022-12-17T07:24:26;87.97;;;40.25;;
12597;SDS011;6364;53.590;9.956;2022-12-17T07:27:10;101.68;;;43.10;;
12597;SDS011;6364;53.590;9.956;2022-12-17T07:29:54;97.85;;;40.58;;
12597;SDS011;6364;53.590;9.956;2022-12-17T07:32:39;97.70;;;43.22;;
12597;SDS011;6364;53.590;9.956;2022-12-17T07:35:22;98.57;;;42.50;;
12597;SDS011;6364;53.590;9.956;2022-12-17T07:38:07;99.45;;;43.53;;
12597;SDS011;6364;53.590;9.956;2022-12-17T07:41:08;96.93;;;43.47;;
12597;SDS011;6364;53.590;9.956;2022-12-17T07:43:52;98.07;;;42.55;;
12597;SDS011;6364;53.590;9.956;2022-12-17T07:46:35;98.75;;;42.70;;
12597;SDS011;6364;53.590;9.956;2022-12-17T07:49:19;97.85;;;41.03;;
12597;SDS011;6364;53.590;9.956;2022-12-17T07:52:03;97.88;;;42.30;;
12597;SDS011;6364;53.590;9.956;2022-12-17T07:57:31;96.22;;;40.67;;
12597;SDS011;6364;53.590;9.956;2022-12-17T08:00:15;97.63;;;40.33;;
12597;SDS011;6364;53.590;9.956;2022-12-17T08:03:00;100.38;;;42.20;;
12597;SDS011;6364;53.590;9.956;2022-12-17T08:05:44;94.00;;;41.85;;
12597;SDS011;6364;53.590;9.956;2022-12-17T08:08:28;107.85;;;41.20;;
12597;SDS011;6364;53.590;9.956;2022-12-17T08:11:12;92.18;;;39.42;;
12597;SDS011;6364;53.590;9.956;2022-12-17T08:13:56;88.95;;;38.90;;
12597;SDS011;6364;53.590;9.956;2022-12-17T08:16:39;93.30;;;38.85;;
12597;SDS011;6364;53.590;9.956;2022-12-17T08:19:23;102.70;;;40.83;;
12597;SDS011;6364;53.590;9.956;2022-12-17T08:22:07;86.05;;;39.20;;
12597;SDS011;6364;53.590;9.956;2022-12-17T08:24:51;94.35;;;40.67;;
12597;SDS011;6364;53.590;9.956;2022-12-17T08:30:19;87.97;;;39.55;;
12597;SDS011;6364;53.590;9.956;2022-12-17T08:35:51;70.45;;;29.13;;
12597;SDS011;6364;53.590;9.956;2022-12-17T08:38:35;90.43;;;39.72;;
12597;SDS011;6364;53.590;9.956;2022-12-17T08:41:21;103.28;;;41.22;;
12597;SDS011;6364;53.590;9.956;2022-12-17T08:44:05;96.45;;;41.92;;
12597;SDS011;6364;53.590;9.956;2022-12-17T08:46:49;96.15;;;42.35;;
12597;SDS011;6364;53.590;9.956;2022-12-17T08:52:17;98.68;;;41.75;;
12597;SDS011;6364;53.590;9.956;2022-12-17T08:55:01;104.55;;;45.35;;
12597;SDS011;6364;53.590;9.956;2022-12-17T09:00:35;97.78;;;42.30;;
12597;SDS011;6364;53.590;9.956;2022-12-17T09:03:19;105.82;;;45.13;;
12597;SDS011;6364;53.590;9.956;2022-12-17T09:08:47;101.28;;;43.03;;
12597;SDS011;6364;53.590;9.956;2022-12-17T09:11:31;94.22;;;43.88;;
12597;SDS011;6364;53.590;9.956;2022-12-17T09:16:59;99.35;;;45.20;;
12597;SDS011;6364;53.590;9.956;2022-12-17T09:19:43;103.75;;;45.22;;
12597;SDS011;6364;53.590;9.956;2022-12-17T09:25:11;105.65;;;46.42;;
12597;SDS011;6364;53.590;9.956;2022-12-17T09:30:59;70.60;;;33.70;;
12597;SDS011;6364;53.590;9.956;2022-12-17T09:33:44;103.40;;;47.33;;
12597;SDS011;6364;53.590;9.956;2022-12-17T09:36:35;98.65;;;47.72;;
12597;SDS011;6364;53.590;9.956;2022-12-17T09:39:19;105.97;;;46.60;;
12597;SDS011;6364;53.590;9.956;2022-12-17T09:44:50;69.90;;;33.75;;
12597;SDS011;6364;53.590;9.956;2022-12-17T09:50:32;98.47;;;46.67;;
12597;SDS011;6364;53.590;9.956;2022-12-17T09:53:21;107.22;;;48.33;;
12597;SDS011;6364;53.590;9.956;2022-12-17T09:56:08;105.57;;;47.72;;
12597;SDS011;6364;53.590;9.956;2022-12-17T09:58:53;109.88;;;50.58;;
12597;SDS011;6364;53.590;9.956;2022-12-17T10:01:37;105.82;;;49.55;;
12597;SDS011;6364;53.590;9.956;2022-12-17T10:04:40;107.22;;;49.45;;
12597;SDS011;6364;53.590;9.956;2022-12-17T10:07:33;93.25;;;46.20;;
12597;SDS011;6364;53.590;9.956;2022-12-17T10:10:25;90.97;;;46.03;;
12597;SDS011;6364;53.590;9.956;2022-12-17T10:13:11;103.35;;;47.38;;
12597;SDS011;6364;53.590;9.956;2022-12-17T10:15:56;94.35;;;47.35;;
12597;SDS011;6364;53.590;9.956;2022-12-17T10:18:41;94.53;;;45.17;;
12597;SDS011;6364;53.590;9.956;2022-12-17T10:21:35;93.45;;;45.75;;
12597;SDS011;6364;53.590;9.956;2022-12-17T10:24:21;89.15;;;44.15;;
12597;SDS011;6364;53.590;9.956;2022-12-17T10:29:52;81.82;;;40.80;;
12597;SDS011;6364;53.590;9.956;2022-12-17T10:35:24;71.65;;;37.00;;
12597;SDS011;6364;53.590;9.956;2022-12-17T10:38:18;69.57;;;35.78;;
12597;SDS011;6364;53.590;9.956;2022-12-17T10:41:04;67.72;;;34.22;;
12597;SDS011;6364;53.590;9.956;2022-12-17T10:44:02;59.67;;;33.20;;
12597;SDS011;6364;53.590;9.956;2022-12-17T10:47:02;54.80;;;29.95;;
12597;SDS011;6364;53.590;9.956;2022-12-17T10:49:54;46.45;;;28.23;;
12597;SDS011;6364;53.590;9.956;2022-12-17T10:52:39;51.17;;;26.55;;
12597;SDS011;6364;53.590;9.956;2022-12-17T10:55:27;44.38;;;23.73;;
12597;SDS011;6364;53.590;9.956;2022-12-17T10:58:19;39.88;;;21.85;;
12597;SDS011;6364;53.590;9.956;2022-12-17T11:01:09;36.22;;;21.30;;
12597;SDS011;6364;53.590;9.956;2022-12-17T11:03:54;31.70;;;19.38;;
12597;SDS011;6364;53.590;9.956;2022-12-17T11:06:43;34.00;;;19.65;;
12597;SDS011;6364;53.590;9.956;2022-12-17T11:09:38;32.38;;;18.15;;
12597;SDS011;6364;53.590;9.956;2022-12-17T11:12:29;31.88;;;17.88;;
12597;SDS011;6364;53.590;9.956;2022-12-17T11:15:18;31.33;;;18.20;;
12597;SDS011;6364;53.590;9.956;2022-12-17T11:18:05;30.38;;;17.65;;
12597;SDS011;6364;53.590;9.956;2022-12-17T11:20:57;29.15;;;17.35;;
12597;SDS011;6364;53.590;9.956;2022-12-17T11:23:45;29.02;;;15.68;;
12597;SDS011;6364;53.590;9.956;2022-12-17T11:26:32;28.33;;;15.88;;
12597;SDS011;6364;53.590;9.956;2022-12-17T11:29:19;31.33;;;16.05;;
12597;SDS011;6364;53.590;9.956;2022-12-17T11:35:02;27.67;;;16.08;;
12597;SDS011;6364;53.590;9.956;2022-12-17T11:41:00;26.52;;;15.07;;
12597;SDS011;6364;53.590;9.956;2022-12-17T11:47:40;30.08;;;15.00;;
12597;SDS011;6364;53.590;9.956;2022-12-17T11:53:53;21.50;;;13.30;;
12597;SDS011;6364;53.590;9.956;2022-12-17T11:56:44;25.63;;;14.32;;
12597;SDS011;6364;53.590;9.956;2022-12-17T11:59:32;20.98;;;13.18;;
12597;SDS011;6364;53.590;9.956;2022-12-17T12:11:56;23.00;;;14.32;;
12597;SDS011;6364;53.590;9.956;2022-12-17T12:15:17;24.67;;;13.55;;
12597;SDS011;6364;53.590;9.956;2022-12-17T12:21:35;20.30;;;12.65;;
12597;SDS011;6364;53.590;9.956;2022-12-17T12:24:35;22.17;;;13.35;;
12597;SDS011;6364;53.590;9.956;2022-12-17T12:27:32;22.58;;;12.65;;
12597;SDS011;6364;53.590;9.956;2022-12-17T12:30:24;19.52;;;11.80;;
12597;SDS011;6364;53.590;9.956;2022-12-17T12:33:22;18.17;;;11.73;;
12597;SDS011;6364;53.590;9.956;2022-12-17T12:36:14;18.88;;;11.63;;
12597;SDS011;6364;53.590;9.956;2022-12-17T12:38:58;18.08;;;11.75;;
12597;SDS011;6364;53.590;9.956;2022-12-17T12:42:02;18.73;;;11.07;;
12597;SDS011;6364;53.590;9.956;2022-12-17T12:48:39;19.52;;;12.15;;
12597;SDS011;6364;53.590;9.956;2022-12-17T12:51:30;26.30;;;12.43;;
12597;SDS011;6364;53.590;9.956;2022-12-17T12:54:21;21.95;;;12.30;;
12597;SDS011;6364;53.590;9.956;2022-12-17T13:03:29;21.55;;;12.10;;
12597;SDS011;6364;53.590;9.956;2022-12-17T13:09:51;18.73;;;11.57;;
12597;SDS011;6364;53.590;9.956;2022-12-17T13:24:47;21.63;;;12.50;;
12597;SDS011;6364;53.590;9.956;2022-12-17T13:27:30;22.38;;;12.45;;
12597;SDS011;6364;53.590;9.956;2022-12-17T13:29:58;24.35;;;12.18;;
12597;SDS011;6364;53.590;9.956;2022-12-17T13:32:56;21.70;;;12.18;;
12597;SDS011;6364;53.590;9.956;2022-12-17T13:35:36;26.90;;;12.70;;
12597;SDS011;6364;53.590;9.956;2022-12-17T13:38:12;21.35;;;12.35;;
12597;SDS011;6364;53.590;9.956;2022-12-17T13:43:29;22.83;;;12.90;;
12597;SDS011;6364;53.590;9.956;2022-12-17T13:45:56;22.13;;;12.93;;
12597;SDS011;6364;53.590;9.956;2022-12-17T13:48:22;25.17;;;12.63;;
12597;SDS011;6364;53.590;9.956;2022-12-17T13:50:59;24.13;;;13.20;;
12597;SDS011;6364;53.590;9.956;2022-12-17T13:53:26;22.38;;;13.63;;
12597;SDS011;6364;53.590;9.956;2022-12-17T13:55:53;22.67;;;12.90;;
12597;SDS011;6364;53.590;9.956;2022-12-17T13:58:21;23.27;;;13.15;;
12597;SDS011;6364;53.590;9.956;2022-12-17T14:00:48;23.70;;;12.93;;
12597;SDS011;6364;53.590;9.956;2022-12-17T14:03:16;24.00;;;12.73;;
12597;SDS011;6364;53.590;9.956;2022-12-17T14:05:45;24.27;;;13.55;;
12597;SDS011;6364;53.590;9.956;2022-12-17T14:08:17;22.60;;;13.63;;
12597;SDS011;6364;53.590;9.956;2022-12-17T14:10:49;25.60;;;13.55;;
12597;SDS011;6364;53.590;9.956;2022-12-17T14:13:16;27.58;;;14.93;;
12597;SDS011;6364;53.590;9.956;2022-12-17T14:15:46;24.83;;;14.23;;
12597;SDS011;6364;53.590;9.956;2022-12-17T14:18:14;25.10;;;13.82;;
12597;SDS011;6364;53.590;9.956;2022-12-17T14:20:40;23.45;;;13.32;;
12597;SDS011;6364;53.590;9.956;2022-12-17T14:25:41;24.30;;;14.00;;
12597;SDS011;6364;53.590;9.956;2022-12-17T14:31:03;30.02;;;15.00;;
12597;SDS011;6364;53.590;9.956;2022-12-17T14:33:30;20.15;;;11.73;;
12597;SDS011;6364;53.590;9.956;2022-12-17T14:35:57;27.05;;;15.00;;
12597;SDS011;6364;53.590;9.956;2022-12-17T14:38:24;29.23;;;15.23;;
12597;SDS011;6364;53.590;9.956;2022-12-17T14:40:51;31.40;;;15.85;;
12597;SDS011;6364;53.590;9.956;2022-12-17T14:43:16;24.80;;;15.65;;
12597;SDS011;6364;53.590;9.956;2022-12-17T14:45:55;27.23;;;14.98;;
12597;SDS011;6364;53.590;9.956;2022-12-17T14:48:41;27.33;;;15.48;;
12597;SDS011;6364;53.590;9.956;2022-12-17T14:51:31;23.40;;;11.63;;
12597;SDS011;6364;53.590;9.956;2022-12-17T14:54:27;30.83;;;16.70;;
12597;SDS011;6364;53.590;9.956;2022-12-17T14:56:51;29.60;;;16.17;;
12597;SDS011;6364;53.590;9.956;2022-12-17T15:01:59;28.83;;;15.40;;
12597;SDS011;6364;53.590;9.956;2022-12-17T15:04:27;30.38;;;16.85;;
12597;SDS011;6364;53.590;9.956;2022-12-17T15:06:54;40.38;;;17.23;;
12597;SDS011;6364;53.590;9.956;2022-12-17T15:09:20;28.60;;;15.82;;
12597;SDS011;6364;53.590;9.956;2022-12-17T15:11:45;30.10;;;17.35;;
12597;SDS011;6364;53.590;9.956;2022-12-17T15:14:10;31.88;;;16.92;;
12597;SDS011;6364;53.590;9.956;2022-12-17T15:16:36;34.47;;;17.73;;
12597;SDS011;6364;53.590;9.956;2022-12-17T15:19:01;30.85;;;17.60;;
12597;SDS011;6364;53.590;9.956;2022-12-17T15:21:26;30.95;;;17.45;;
12597;SDS011;6364;53.590;9.956;2022-12-17T15:23:52;32.38;;;16.80;;
12597;SDS011;6364;53.590;9.956;2022-12-17T15:26:17;34.25;;;18.17;;
12597;SDS011;6364;53.590;9.956;2022-12-17T15:28:43;37.42;;;20.00;;
12597;SDS011;6364;53.590;9.956;2022-12-17T15:31:10;30.50;;;16.48;;
12597;SDS011;6364;53.590;9.956;2022-12-17T15:33:37;42.88;;;17.67;;
12597;SDS011;6364;53.590;9.956;2022-12-17T15:36:02;32.88;;;17.42;;
12597;SDS011;6364;53.590;9.956;2022-12-17T15:38:28;34.20;;;16.95;;
12597;SDS011;6364;53.590;9.956;2022-12-17T15:40:53;35.47;;;17.25;;
12597;SDS011;6364;53.590;9.956;2022-12-17T15:43:19;37.67;;;17.17;;
12597;SDS011;6364;53.590;9.956;2022-12-17T15:45:45;28.17;;;15.75;;
12597;SDS011;6364;53.590;9.956;2022-12-17T15:48:12;35.20;;;16.73;;
12597;SDS011;6364;53.590;9.956;2022-12-17T15:50:40;29.08;;;15.57;;
12597;SDS011;6364;53.590;9.956;2022-12-17T15:53:05;28.17;;;16.35;;
12597;SDS011;6364;53.590;9.956;2022-12-17T15:55:31;31.67;;;16.80;;
12597;SDS011;6364;53.590;9.956;2022-12-17T15:57:57;31.25;;;16.73;;
12597;SDS011;6364;53.590;9.956;2022-12-17T16:00:22;27.48;;;15.52;;
12597;SDS011;6364;53.590;9.956;2022-12-17T16:02:48;28.85;;;15.13;;
12597;SDS011;6364;53.590;9.956;2022-12-17T16:05:14;31.90;;;16.02;;
12597;SDS011;6364;53.590;9.956;2022-12-17T16:07:39;27.75;;;15.10;;
12597;SDS011;6364;53.590;9.956;2022-12-17T16:10:07;26.90;;;15.07;;
12597;SDS011;6364;53.590;9.956;2022-12-17T16:12:33;31.85;;;15.77;;
12597;SDS011;6364;53.590;9.956;2022-12-17T16:14:58;33.28;;;15.18;;
12597;SDS011;6364;53.590;9.956;2022-12-17T16:17:23;31.30;;;14.38;;
12597;SDS011;6364;53.590;9.956;2022-12-17T16:19:49;27.00;;;13.88;;
12597;SDS011;6364;53.590;9.956;2022-12-17T16:22:14;27.27;;;14.90;;
12597;SDS011;6364;53.590;9.956;2022-12-17T16:24:39;30.48;;;13.88;;
12597;SDS011;6364;53.590;9.956;2022-12-17T16:27:05;26.08;;;13.98;;
12597;SDS011;6364;53.590;9.956;2022-12-17T16:29:31;29.13;;;14.48;;
12597;SDS011;6364;53.590;9.956;2022-12-17T16:31:56;32.60;;;15.23;;
12597;SDS011;6364;53.590;9.956;2022-12-17T16:34:21;29.58;;;13.77;;
12597;SDS011;6364;53.590;9.956;2022-12-17T16:36:47;28.67;;;13.73;;
12597;SDS011;6364;53.590;9.956;2022-12-17T16:39:15;21.05;;;12.55;;
12597;SDS011;6364;53.590;9.956;2022-12-17T16:41:42;29.33;;;13.27;;
12597;SDS011;6364;53.590;9.956;2022-12-17T16:44:08;26.58;;;12.65;;
12597;SDS011;6364;53.590;9.956;2022-12-17T16:46:34;22.05;;;12.27;;
12597;SDS011;6364;53.590;9.956;2022-12-17T16:49:07;24.92;;;13.02;;
12597;SDS011;6364;53.590;9.956;2022-12-17T16:51:35;27.55;;;12.23;;
12597;SDS011;6364;53.590;9.956;2022-12-17T16:54:02;25.95;;;12.15;;
12597;SDS011;6364;53.590;9.956;2022-12-17T16:56:32;23.65;;;12.43;;
12597;SDS011;6364;53.590;9.956;2022-12-17T16:58:58;21.77;;;11.32;;
12597;SDS011;6364;53.590;9.956;2022-12-17T17:01:24;21.63;;;12.02;;
12597;SDS011;6364;53.590;9.956;2022-12-17T17:03:52;20.40;;;11.00;;
12597;SDS011;6364;53.590;9.956;2022-12-17T17:06:17;25.35;;;11.88;;
12597;SDS011;6364;53.590;9.956;2022-12-17T17:08:44;21.52;;;11.30;;
12597;SDS011;6364;53.590;9.956;2022-12-17T17:11:11;22.38;;;10.88;;
12597;SDS011;6364;53.590;9.956;2022-12-17T17:13:38;21.77;;;11.35;;
12597;SDS011;6364;53.590;9.956;2022-12-17T17:16:04;26.58;;;12.32;;
12597;SDS011;6364;53.590;9.956;2022-12-17T17:18:30;22.70;;;11.88;;
12597;SDS011;6364;53.590;9.956;2022-12-17T17:21:10;26.83;;;12.25;;
12597;SDS011;6364;53.590;9.956;2022-12-17T17:23:53;25.70;;;11.13;;
12597;SDS011;6364;53.590;9.956;2022-12-17T17:26:20;29.13;;;12.77;;
12597;SDS011;6364;53.590;9.956;2022-12-17T17:28:46;25.05;;;13.27;;
12597;SDS011;6364;53.590;9.956;2022-12-17T17:31:12;23.77;;;12.43;;
12597;SDS011;6364;53.590;9.956;2022-12-17T17:33:40;22.15;;;11.80;;
12597;SDS011;6364;53.590;9.956;2022-12-17T17:36:15;24.40;;;11.55;;
12597;SDS011;6364;53.590;9.956;2022-12-17T17:38:42;24.15;;;11.70;;
12597;SDS011;6364;53.590;9.956;2022-12-17T17:41:09;25.52;;;12.13;;
12597;SDS011;6364;53.590;9.956;2022-12-17T17:43:36;30.77;;;12.52;;
12597;SDS011;6364;53.590;9.956;2022-12-17T17:46:03;27.95;;;13.02;;
12597;SDS011;6364;53.590;9.956;2022-12-17T17:48:29;24.08;;;12.75;;
12597;SDS011;6364;53.590;9.956;2022-12-17T17:50:57;24.60;;;12.38;;
12597;SDS011;6364;53.590;9.956;2022-12-17T17:53:26;29.15;;;14.23;;
12597;SDS011;6364;53.590;9.956;2022-12-17T17:55:51;31.48;;;14.63;;
12597;SDS011;6364;53.590;9.956;2022-12-17T17:58:17;25.60;;;14.15;;
12597;SDS011;6364;53.590;9.956;2022-12-17T18:00:42;27.95;;;13.10;;
12597;SDS011;6364;53.590;9.956;2022-12-17T18:03:08;23.45;;;12.90;;
12597;SDS011;6364;53.590;9.956;2022-12-17T18:05:39;28.38;;;13.32;;
12597;SDS011;6364;53.590;9.956;2022-12-17T18:08:06;28.45;;;12.45;;
12597;SDS011;6364;53.590;9.956;2022-12-17T18:10:31;25.10;;;13.60;;
12597;SDS011;6364;53.590;9.956;2022-12-17T18:12:56;25.55;;;13.55;;
12597;SDS011;6364;53.590;9.956;2022-12-17T18:15:45;26.67;;;13.90;;
12597;SDS011;6364;53.590;9.956;2022-12-17T18:18:10;25.42;;;13.05;;
12597;SDS011;6364;53.590;9.956;2022-12-17T18:20:36;28.73;;;13.95;;
12597;SDS011;6364;53.590;9.956;2022-12-17T18:23:01;27.77;;;13.93;;
12597;SDS011;6364;53.590;9.956;2022-12-17T18:25:26;33.97;;;14.23;;
12597;SDS011;6364;53.590;9.956;2022-12-17T18:27:52;33.38;;;14.88;;
12597;SDS011;6364;53.590;9.956;2022-12-17T18:30:17;27.63;;;14.00;;
12597;SDS011;6364;53.590;9.956;2022-12-17T18:32:43;27.50;;;14.10;;
12597;SDS011;6364;53.590;9.956;2022-12-17T18:35:09;33.90;;;17.25;;
12597;SDS011;6364;53.590;9.956;2022-12-17T18:37:34;37.05;;;19.27;;
12597;SDS011;6364;53.590;9.956;2022-12-17T18:40:00;41.22;;;19.02;;
12597;SDS011;6364;53.590;9.956;2022-12-17T18:42:25;30.80;;;15.25;;
12597;SDS011;6364;53.590;9.956;2022-12-17T18:45:12;33.67;;;16.05;;
12597;SDS011;6364;53.590;9.956;2022-12-17T18:47:37;26.60;;;14.82;;
12597;SDS011;6364;53.590;9.956;2022-12-17T18:50:03;26.80;;;13.88;;
12597;SDS011;6364;53.590;9.956;2022-12-17T18:52:28;33.58;;;15.57;;
12597;SDS011;6364;53.590;9.956;2022-12-17T18:54:54;35.50;;;16.58;;
12597;SDS011;6364;53.590;9.956;2022-12-17T18:57:19;39.42;;;16.90;;
12597;SDS011;6364;53.590;9.956;2022-12-17T18:59:44;41.85;;;17.00;;
12597;SDS011;6364;53.590;9.956;2022-12-17T19:02:10;33.53;;;17.30;;
12597;SDS011;6364;53.590;9.956;2022-12-17T19:04:36;32.50;;;14.70;;
12597;SDS011;6364;53.590;9.956;2022-12-17T19:07:02;34.88;;;15.90;;
12597;SDS011;6364;53.590;9.956;2022-12-17T19:09:28;30.10;;;15.55;;
12597;SDS011;6364;53.590;9.956;2022-12-17T19:11:55;30.52;;;16.45;;
12597;SDS011;6364;53.590;9.956;2022-12-17T19:14:21;36.42;;;15.48;;
12597;SDS011;6364;53.590;9.956;2022-12-17T19:16:48;36.10;;;17.10;;
12597;SDS011;6364;53.590;9.956;2022-12-17T19:19:14;35.05;;;16.60;;
12597;SDS011;6364;53.590;9.956;2022-12-17T19:21:40;49.72;;;23.35;;